This is the latest recevied weather packets stored in our database for station/object KD5FHA. If no packets are shown the sender has not sent any weather packets the latest 10 day(s).
| Time | Temp. | Humidity | Pressure | Rain* | Wind** | Luminosity | Snow |
|---|---|---|---|---|---|---|---|
| 1778114946 | 15° C | 90% | 1014.9 hPa | 0 mm | - | 12 W/m² | - |
| 1778114643 | 15° C | 90% | 1014.9 hPa | 0 mm | - | 16 W/m² | - |
| 1778114340 | 15.56° C | 91% | 1015 hPa | 0 mm | - | 18 W/m² | - |
| 1778114035 | 15.56° C | 91% | 1014.7 hPa | 0 mm | - | 23 W/m² | - |
| 1778113731 | 15.56° C | 91% | 1014.9 hPa | 0 mm | - | 27 W/m² | - |
| 1778113427 | 15.56° C | 91% | 1014.8 hPa | 0 mm | - | 33 W/m² | - |
| 1778113124 | 15.56° C | 91% | 1014.7 hPa | 0 mm | - | 36 W/m² | - |
| 1778112821 | 15.56° C | 91% | 1014.9 hPa | 0 mm | - | 45 W/m² | - |
| 1778112517 | 15.56° C | 91% | 1014.9 hPa | 0 mm | - | 48 W/m² | - |
| 1778112213 | 15.56° C | 91% | 1014.7 hPa | 0 mm | - | 58 W/m² | - |
| 1778111910 | 15.56° C | 91% | 1014.6 hPa | 0 mm | - | 62 W/m² | - |
| 1778111606 | 15.56° C | 91% | 1014.5 hPa | 0 mm | - | 86 W/m² | - |
| 1778111302 | 15° C | 90% | 1014.6 hPa | 0 mm | - | 94 W/m² | - |
| 1778111001 | 15° C | 91% | 1014.5 hPa | 0 mm | - | 79 W/m² | - |
| 1778110698 | 15° C | 91% | 1014.4 hPa | 0 mm | - | 83 W/m² | - |
| 1778110393 | 15° C | 91% | 1014.4 hPa | 0 mm | - | 106 W/m² | - |
| 1778110090 | 15° C | 90% | 1014.3 hPa | 0 mm | - | 127 W/m² | - |
| 1778109786 | 15° C | 90% | 1014.2 hPa | 2.29 mm | - | 108 W/m² | - |
| 1778109483 | 15° C | 88% | 1014.4 hPa | 11.94 mm | - | 129 W/m² | - |
| 1778109181 | 15.56° C | 84% | 1013.9 hPa | 8.38 mm | - | 112 W/m² | - |
| 1778108879 | 16.11° C | 80% | 1014.5 hPa | 0 mm | - | 34 W/m² | - |
| 1778108575 | 16.11° C | 77% | 1014.7 hPa | 0 mm | - | 25 W/m² | - |
| 1778108272 | 16.67° C | 77% | 1014.1 hPa | 0 mm | - | 79 W/m² | - |
| 1778107968 | 16.67° C | 75% | 1014 hPa | 0 mm | - | 132 W/m² | - |
| 1778107664 | 16.67° C | 75% | 1014.3 hPa | 0 mm | - | 105 W/m² | - |
* Rain latest hour (hover to see other rain measurements)
** Current wind speed in m/s (hover to see current wind gust speed)